• Join FlightAware (Why Join?)
  • Login
  • US Flag 
09:36AM EDT


 

Airport Tracker/Info


-or-


 

Live Flight TrackerFlight Track Log ✈ AWE1940 ✈ 18-Aug-2013 ✈ KCLT - KALB

Flight Track Log - Related Links

Times and Time Zones

All times are in EDT time to prevent confusion due to time zone crossing. See the AWE1940 flight status page for this flight to view local times or setup timezone preferences in your user account.

Time Position Orientation Groundspeed Altitude Reporting Facility
EDT Latitude Longitude Course Direction KTS MPH feet Rate Location/Type
10:21PM 35.1928 -80.9356 72° East 167 192 1,700  Level Atlanta Center
10:21PM 35.1617 -80.9342 178° South 179 206 2,600 2,220 Climbing Atlanta Center
10:22PM 35.1081 -80.8831 142° Southeast 234 269 5,300 2,280 Climbing Atlanta Center
10:23PM 35.1367 -80.6089 29° Northeast  Level FlightAware Approximate
10:23PM 35.0956 -80.7997 100° East 283 326 7,300  Level Atlanta Center
10:24PM 35.2409 -80.5375 30° Northeast  Level FlightAware Approximate
10:24PM 35.1022 -80.7411 82° East 298 343 8,100  Level Atlanta Center
10:25PM 35.3338 -80.4649 72° East  Level FlightAware Approximate
10:25PM 35.1353 -80.6483 66° East 304 350 9,400  Level Atlanta Center
10:26PM 35.3706 -80.3256 72° East  Level FlightAware Approximate
10:26PM 35.1869 -80.5622 54° Northeast 318 366 11,800  Level Atlanta Center
10:27PM 35.2469 -80.4656 53° Northeast 341 392 13,700 1,680 Climbing Atlanta Center
10:29PM 35.3317 -80.2308 66° East 358 412 16,900 1,620 Climbing Washington Center
10:30PM 35.3719 -80.1006 69° East 386 444 18,500 1,860 Climbing Washington Center
10:31PM 35.4247 -79.9736 63° Northeast 402 463 20,600 2,160 Climbing Washington Center
10:32PM 35.4733 -79.8411 66° East 414 476 22,800 1,860 Climbing Washington Center
10:33PM 35.5239 -79.7111 64° Northeast 419 482 24,400 1,500 Climbing Washington Center
10:34PM 35.5764 -79.5811 64° Northeast 438 504 25,800 1,200 Climbing Washington Center
10:35PM 35.6603 -79.4394 54° Northeast 459 528 26,900 1,200 Climbing Washington Center
10:36PM 35.7394 -79.3103 53° Northeast 466 536 28,200 1,200 Climbing Washington Center
10:37PM 35.8208 -79.1758 53° Northeast 472 543 29,300 1,140 Climbing Washington Center
10:38PM 35.9061 -79.0411 52° Northeast 486 559 30,600 1,560 Climbing Washington Center
10:39PM 35.9850 -78.9086 54° Northeast 493 567 32,500 1,200 Climbing Washington Center
10:40PM 36.0639 -78.7706 55° Northeast 488 562 33,000 240 Climbing Washington Center
10:41PM 36.1444 -78.6375 53° Northeast 488 562 33,000  Level Washington Center
10:42PM 36.2272 -78.5017 53° Northeast 488 562 33,000  Level Washington Center
10:43PM 36.3097 -78.3656 53° Northeast 488 562 33,000  Level Washington Center
10:44PM 36.3878 -78.2289 55° Northeast 488 562 33,000  Level Washington Center
10:45PM 36.4681 -78.0922 54° Northeast 488 562 33,000  Level Washington Center
10:46PM 36.5500 -77.9525 54° Northeast 488 562 33,000  Level Washington Center
10:47PM 36.6278 -77.8178 54° Northeast 488 562 33,000  Level Washington Center
10:48PM 36.7097 -77.6750 54° Northeast 488 562 33,000  Level Washington Center
10:49PM 36.7892 -77.5369 54° Northeast 488 562 33,000  Level Washington Center
10:50PM 36.8706 -77.3989 54° Northeast 488 562 33,000  Level Washington Center
10:51PM 36.9519 -77.2553 55° Northeast 488 562 33,000  Level Washington Center
10:52PM 37.0353 -77.1139 54° Northeast 488 562 33,000  Level Washington Center
10:53PM 37.1119 -76.9722 56° Northeast 488 562 33,000  Level Washington Center
10:54PM 37.1864 -76.8406 55° Northeast 498 573 33,000  Level Washington Center
10:55PM 37.2692 -76.6958 54° Northeast 503 579 33,000  Level Washington Center
10:56PM 37.3497 -76.5533 55° Northeast 508 585 33,000  Level Washington Center
10:57PM 37.4361 -76.4131 52° Northeast 508 585 33,000  Level Washington Center
10:58PM 37.5517 -76.3147 34° Northeast 493 567 33,000  Level Washington Center
10:59PM 37.6689 -76.2267 31° Northeast 493 567 33,000  Level Washington Center
11:00PM 37.7903 -76.1358 31° Northeast 493 567 33,000  Level Washington Center
11:01PM 37.9053 -76.0469 31° Northeast 493 567 33,000  Level Washington Center
11:02PM 38.0350 -75.9425 32° Northeast 493 567 33,000  Level Washington Center
11:03PM 38.1519 -75.8506 32° Northeast 493 567 33,000  Level Washington Center
11:04PM 38.2689 -75.7608 31° Northeast 493 567 33,000  Level Washington Center
11:05PM 38.3753 -75.6792 31° Northeast 493 567 33,000  Level Washington Center
11:06PM 38.4942 -75.5864 31° Northeast 493 567 33,000  Level Washington Center
11:07PM 38.6089 -75.4881 34° Northeast 493 567 33,000  Level Washington Center
11:08PM 38.7275 -75.3975 31° Northeast 493 567 33,000  Level Washington Center
11:09PM 38.8461 -75.3011 32° Northeast 493 567 33,000  Level Washington Center
11:10PM 38.9792 -75.1939 32° Northeast 502 578 33,000  Level Washington Center
11:11PM 39.0956 -75.0994 32° Northeast 502 578 33,000  Level Washington Center
11:12PM 39.2139 -75.0022 32° Northeast 497 572 33,000  Level Washington Center
11:14PM 39.4331 -74.8217 32° Northeast 497 572 33,000  Level New York Center
11:15PM 39.5361 -74.7358 33° Northeast 497 572 33,000  Level New York Center
11:16PM 39.6669 -74.6272 33° Northeast 502 578 33,000  Level New York Center
11:17PM 39.7700 -74.5383 34° Northeast 497 572 33,000  Level New York Center
11:18PM 39.8956 -74.4586 26° Northeast 497 572 33,000  Level New York Center
11:19PM 40.0258 -74.4250 11° North 485 558 33,000  Level New York Center
11:20PM 40.1578 -74.3992 North 472 543 33,000  Level New York Center
11:21PM 40.2881 -74.3708 North 472 543 33,000  Level New York Center
11:22PM 40.4222 -74.3397 10° North 472 543 33,000  Level New York Center
11:23PM 40.5542 -74.3136 North 472 543 33,000 -60 Level New York Center
11:24PM 40.6844 -74.2794 11° North 472 543 32,900 -1,560 Descending New York Center
11:26PM 40.9317 -74.2258 North 476 548 28,600 -2,400 Descending Boston Center
11:27PM 41.0656 -74.1964 North 482 555 26,000 -1,320 Descending Boston Center
11:28PM 41.1931 -74.1669 10° North 482 555 26,000  Level Boston Center
11:29PM 41.3353 -74.1319 10° North 477 549 26,000 -480 Level Boston Center
11:30PM 41.4650 -74.1022 10° North 472 543 25,100 -1,440 Descending Boston Center
11:31PM 41.5778 -74.0775 North 467 537 23,200 -2,040 Descending Boston Center
11:32PM 41.7075 -74.0500 North 460 529 21,100 -2,520 Descending Boston Center
11:33PM 41.8225 -74.0197 11° North 431 496 18,200 -2,640 Descending Boston Center
11:34PM 41.9333 -73.9944 10° North 406 467 15,900 -2,460 Descending Boston Center
11:34PM 41.9981 -73.9794 10° North 396 456 14,200 -2,640 Descending Boston Center
11:35PM 42.0567 -73.9697 North 387 445 12,800 -2,400 Descending Boston Center
11:36PM 42.1339 -73.9492 11° North 383 441 11,000 -1,140 Descending Boston Center
11:37PM 42.2322 -73.9233 11° North 344 396 10,800 -960 Descending Boston Center
11:38PM 42.3033 -73.9028 12° North 300 345 9,100 -1,860 Descending Boston Center
11:39PM 42.3914 -73.8767 12° North 290 334 7,100 -2,040 Descending Boston Center
11:40PM 42.4625 -73.8558 12° North 285 328 5,200 -1,500 Descending Boston Center
11:41PM 42.5397 -73.8350 11° North 274 315 4,200 -840 Descending Boston Center
11:42PM 42.5900 -73.8192 13° North 249 287 3,600 -1,020 Descending Boston Center
11:43PM 42.6506 -73.8036 11° North 218 251 2,200 -840 Descending Boston Center
11:44PM 42.7175 -73.7881 10° North 211 243 2,000 -240 Descending Boston Center